Time;durP1;ratioP1;P1;durP2;ratioP2;P2;SDS_P1;SDS_P2;PMS_P1;PMS_P2;Temp;Humidity;BMP_temperature;BMP_pressure;BME280_temperature;BME280_humidity;BME280_pressure;Samples;Min_cycle;Max_cycle;Signal;HPM_P1;HPM_P2
2023/05/14 18:53:53;;;;;;;;;13.00;11.25;;;;;-146.67;27.00;73936.94;5118357;27;62189;-68
2023/05/14 18:56:18;;;;;;;;;7.25;7.25;;;;;-146.67;26.99;73944.94;5119401;27;61907;-70
2023/05/14 18:58:44;;;;;;;;;14.50;10.25;;;;;-146.67;27.06;73970.88;5108321;27;61786;-70
2023/05/14 19:01:09;;;;;;;;;13.00;10.75;;;;;-146.67;27.24;73990.84;5112534;27;61783;-69
2023/05/14 19:03:35;;;;;;;;;13.75;9.75;;;;;-146.67;27.28;74018.78;5108422;27;61857;-69
2023/05/14 19:06:00;;;;;;;;;12.50;10.25;;;;;-146.67;27.91;74040.75;5103443;27;62314;-69
2023/05/14 19:08:25;;;;;;;;;15.00;11.25;;;;;-146.67;28.14;74054.72;5112970;27;61824;-70
2023/05/14 19:10:51;;;;;;;;;15.00;13.75;;;;;-146.67;28.47;74070.69;5106176;27;62916;-71
2023/05/14 19:13:17;;;;;;;;;11.50;10.00;;;;;-146.67;28.87;74084.66;5098816;27;62163;-73
2023/05/14 19:15:42;;;;;;;;;17.00;13.50;;;;;-146.67;28.67;74096.66;5094858;27;61944;-74
2023/05/14 19:18:08;;;;;;;;;15.75;12.75;;;;;-146.67;28.64;74114.63;5110306;27;61923;-74
2023/05/14 19:20:33;;;;;;;;;13.25;11.75;;;;;-146.67;28.92;74150.53;5106144;27;64597;-73
2023/05/14 19:22:58;;;;;;;;;20.00;15.00;;;;;-146.67;29.72;74166.50;5094900;27;61914;-73
2023/05/14 19:25:24;;;;;;;;;18.25;15.00;;;;;-146.67;29.58;74178.50;5098017;27;62030;-74
2023/05/14 19:27:50;;;;;;;;;17.75;15.25;;;;;-146.67;29.52;74194.47;5097993;27;62168;-73
2023/05/14 19:30:16;;;;;;;;;16.75;14.50;;;;;-146.67;29.84;74212.44;5095345;27;63560;-73
2023/05/14 19:32:41;;;;;;;;;14.00;12.00;;;;;-146.67;29.62;74230.41;5101139;27;61793;-73
2023/05/14 19:35:07;;;;;;;;;13.75;13.75;;;;;-146.67;30.17;74256.34;5097315;27;62103;-73
2023/05/14 19:37:32;;;;;;;;;12.25;12.25;;;;;-146.67;29.93;74260.34;5091635;27;62234;-73
2023/05/14 19:39:58;;;;;;;;;17.75;14.75;;;;;-146.67;30.14;74268.31;5092822;27;63156;-73
2023/05/14 19:42:24;;;;;;;;;17.50;15.25;;;;;-146.67;30.37;74278.31;5088270;27;61798;-73
2023/05/14 19:44:49;;;;;;;;;15.50;14.25;;;;;-146.67;30.19;74294.28;5094297;27;61846;-74
2023/05/14 19:47:15;;;;;;;;;14.00;11.00;;;;;-146.67;30.17;74302.25;5097534;27;62230;-73
2023/05/14 19:49:40;;;;;;;;;19.50;15.50;;;;;-146.67;30.78;74308.25;5088605;27;62323;-84
2023/05/14 19:52:05;;;;;;;;;18.00;17.00;;;;;-146.67;30.73;74326.22;5124319;27;61859;-84
2023/05/14 19:54:31;;;;;;;;;13.50;13.25;;;;;-146.67;30.96;74360.16;5097445;27;61943;-84
2023/05/14 19:56:56;;;;;;;;;18.00;14.25;;;;;-146.67;30.77;74394.09;5105262;27;62152;-83
2023/05/14 19:59:22;;;;;;;;;15.25;13.00;;;;;-146.67;31.55;74416.06;5097022;27;62014;-83
2023/05/14 20:01:48;;;;;;;;;16.25;13.25;;;;;-146.67;31.69;74434.03;5115523;27;61727;-79
2023/05/14 20:04:14;;;;;;;;;17.25;16.00;;;;;-146.67;31.67;74442.00;5090156;27;62000;-80
2023/05/14 20:06:42;;;;;;;;;16.75;16.00;;;;;-146.67;31.32;74456.00;5079879;28;62106;-80
2023/05/14 20:09:07;;;;;;;;;15.50;15.00;;;;;-146.67;31.96;74473.97;5077163;27;63474;-80
2023/05/14 20:11:33;;;;;;;;;16.25;14.00;;;;;-146.67;31.68;74485.94;5081627;28;62122;-80
2023/05/14 20:13:59;;;;;;;;;27.25;18.75;;;;;-146.67;32.12;74501.91;5083091;27;61801;-80
2023/05/14 20:16:24;;;;;;;;;20.00;17.25;;;;;-146.67;32.04;74505.91;5079420;28;61916;-80
2023/05/14 20:18:52;;;;;;;;;15.50;13.75;;;;;-146.67;32.04;74505.91;5074640;28;62898;-80
2023/05/14 20:21:18;;;;;;;;;14.00;12.50;;;;;-146.67;32.03;74511.88;5083183;28;61967;-80
2023/05/14 20:23:43;;;;;;;;;19.50;16.75;;;;;-146.67;32.44;74513.88;5081643;28;62089;-80
2023/05/14 20:26:09;;;;;;;;;18.25;15.50;;;;;-146.67;32.07;74509.88;5089132;27;62088;-80
2023/05/14 20:28:34;;;;;;;;;18.50;15.00;;;;;-146.67;32.16;74521.88;5084165;27;64677;-80
2023/05/14 20:31:02;;;;;;;;;19.00;16.75;;;;;-146.67;32.44;74515.88;5084921;27;62017;-80
2023/05/14 20:33:28;;;;;;;;;21.25;17.00;;;;;-146.67;32.53;74525.88;5087141;27;62040;-80
2023/05/14 20:35:55;;;;;;;;;26.75;21.50;;;;;-146.67;32.94;74537.84;5069400;28;61767;-80
2023/05/14 20:38:21;;;;;;;;;13.75;13.75;;;;;-146.67;32.53;74545.81;5081078;28;63818;-80
2023/05/14 20:40:47;;;;;;;;;26.00;20.25;;;;;-146.67;32.93;74547.81;5083041;27;62151;-80
2023/05/14 20:43:12;;;;;;;;;14.00;12.25;;;;;-146.67;32.61;74551.81;5081048;28;62108;-80
2023/05/14 20:45:38;;;;;;;;;20.50;15.50;;;;;-146.67;33.01;74561.81;5081081;27;61859;-80
2023/05/14 20:48:08;;;;;;;;;19.25;16.25;;;;;-146.67;33.42;74567.78;5080964;27;62072;-80
2023/05/14 20:50:34;;;;;;;;;19.25;18.00;;;;;-146.67;33.54;74581.75;5081074;28;62045;-80
2023/05/14 20:53:00;;;;;;;;;18.75;16.75;;;;;-146.67;32.94;74585.75;5078884;27;61967;-80
2023/05/14 20:55:25;;;;;;;;;20.25;18.25;;;;;-146.67;33.73;74597.75;5078068;28;62069;-80
2023/05/14 20:57:51;;;;;;;;;21.00;19.50;;;;;-146.67;33.47;74601.72;5059899;28;63675;-81
2023/05/14 21:00:17;;;;;;;;;24.25;21.50;;;;;-146.67;33.60;74623.69;5063075;28;61944;-80
2023/05/14 21:02:42;;;;;;;;;20.75;17.25;;;;;-146.67;34.14;74637.66;5062119;28;61987;-80
2023/05/14 21:05:08;;;;;;;;;23.00;17.25;;;;;-146.67;33.71;74645.66;5062299;28;61985;-80
2023/05/14 21:07:35;;;;;;;;;22.00;20.00;;;;;-146.67;34.02;74661.63;5098752;27;63469;-80
2023/05/14 21:10:01;;;;;;;;;23.50;19.25;;;;;-146.67;34.58;74681.59;5082384;28;61746;-80
2023/05/14 21:12:26;;;;;;;;;28.00;23.25;;;;;-146.67;34.37;74673.59;5083152;28;62051;-80
2023/05/14 21:14:51;;;;;;;;;19.75;18.50;;;;;-146.67;34.35;74679.59;5083490;28;61890;-80
2023/05/14 21:17:17;;;;;;;;;30.50;21.75;;;;;-146.67;34.05;74687.56;5061413;28;63891;-80
2023/05/14 21:19:42;;;;;;;;;21.75;19.50;;;;;-146.67;34.07;74661.63;5062479;28;61828;-80
2023/05/14 21:22:07;;;;;;;;;24.25;18.75;;;;;-146.67;34.33;74657.63;5079016;28;62072;-80
2023/05/14 21:24:33;;;;;;;;;22.25;18.00;;;;;-146.67;34.31;74659.63;5078270;28;61880;-80
2023/05/14 21:26:58;;;;;;;;;21.75;17.75;;;;;-146.67;33.15;74661.63;5082298;28;62690;-80
2023/05/14 21:29:23;;;;;;;;;22.50;17.50;;;;;-146.67;33.69;74669.63;5083303;27;62106;-80
2023/05/14 21:31:49;;;;;;;;;22.75;19.50;;;;;-146.67;34.22;74667.63;5079994;27;61934;-80
2023/05/14 21:34:14;;;;;;;;;18.75;16.75;;;;;-146.67;34.18;74671.59;5083185;28;62126;-80
2023/05/14 21:36:40;;;;;;;;;19.25;17.00;;;;;-146.67;34.49;74671.59;5080713;27;63747;-80
2023/05/14 21:39:05;;;;;;;;;18.50;14.50;;;;;-146.67;34.27;74675.59;5115406;27;61871;-79
2023/05/14 21:41:31;;;;;;;;;26.00;17.75;;;;;-146.67;33.68;74675.59;5082538;28;61777;-80
2023/05/14 21:43:56;;;;;;;;;22.25;16.00;;;;;-146.67;34.01;74683.59;5083498;28;61988;-79
2023/05/14 21:46:22;;;;;;;;;25.50;22.25;;;;;-146.67;33.72;74685.59;5082255;28;61963;-79
2023/05/14 21:48:47;;;;;;;;;24.75;19.75;;;;;-146.67;33.95;74687.56;5068209;28;61821;-79
2023/05/14 21:51:13;;;;;;;;;26.00;19.50;;;;;-146.67;33.91;74703.56;5061116;28;61787;-80
2023/05/14 21:53:38;;;;;;;;;21.75;17.50;;;;;-146.67;34.07;74719.53;5062431;28;62152;-79
2023/05/14 21:56:04;;;;;;;;;23.00;20.00;;;;;-146.67;34.06;74723.50;5060434;28;63866;-80
2023/05/14 21:58:30;;;;;;;;;20.25;18.00;;;;;-146.67;34.29;74741.50;5062578;28;61708;-80
2023/05/14 22:00:56;;;;;;;;;23.00;15.75;;;;;-146.67;34.29;74731.50;5062602;28;61785;-79
2023/05/14 22:03:21;;;;;;;;;27.25;22.75;;;;;-146.67;34.65;74731.50;5062862;28;61969;-79
2023/05/14 22:05:48;;;;;;;;;26.75;19.00;;;;;-146.67;34.45;74729.50;5093964;27;63976;-79
2023/05/14 22:08:15;;;;;;;;;28.00;21.00;;;;;-146.67;34.71;74731.50;5069484;28;61882;-79
2023/05/14 22:10:41;;;;;;;;;24.25;21.25;;;;;-146.67;34.87;74741.50;5080940;28;61824;-79
2023/05/14 22:13:06;;;;;;;;;27.00;23.00;;;;;-146.67;35.16;74729.50;5083176;28;61764;-79
2023/05/14 22:15:32;;;;;;;;;28.50;21.50;;;;;-146.67;34.98;74723.50;5097751;27;64794;-80
2023/05/14 22:17:57;;;;;;;;;25.75;20.25;;;;;-146.67;35.44;74731.50;5097661;27;61866;-79
2023/05/14 22:20:22;;;;;;;;;26.25;21.25;;;;;-146.67;35.75;74735.50;5094705;27;62044;-79
2023/05/14 22:22:48;;;;;;;;;24.25;21.75;;;;;-146.67;35.41;74743.47;5081325;28;62202;-79
2023/05/14 22:25:14;;;;;;;;;25.75;18.25;;;;;-146.67;35.51;74745.47;5097077;27;64352;-79
2023/05/14 22:27:39;;;;;;;;;30.75;23.00;;;;;-146.67;35.70;74749.47;5081858;28;61899;-79
2023/05/14 22:30:05;;;;;;;;;24.50;21.00;;;;;-146.67;35.55;74751.47;5082637;28;61957;-79
2023/05/14 22:32:31;;;;;;;;;27.25;24.50;;;;;-146.67;35.53;74755.47;5070913;27;62183;-79
2023/05/14 22:34:56;;;;;;;;;22.75;22.00;;;;;-146.67;35.85;74755.47;5070275;27;61967;-79
2023/05/14 22:37:21;;;;;;;;;20.25;18.75;;;;;-146.67;35.89;74757.47;5102721;27;61952;-79
2023/05/14 22:39:47;;;;;;;;;30.50;26.25;;;;;-146.67;36.43;74771.44;5101290;27;61744;-79
2023/05/14 22:42:12;;;;;;;;;22.50;19.25;;;;;-146.67;36.32;74773.44;5102064;27;61965;-79
2023/05/14 22:44:38;;;;;;;;;24.75;22.50;;;;;-146.67;36.12;74771.44;5102590;27;61819;-79
2023/05/14 22:47:04;;;;;;;;;24.50;18.75;;;;;-146.67;36.03;74775.44;5101717;27;61962;-79
2023/05/14 22:49:29;;;;;;;;;21.75;20.25;;;;;-146.67;36.34;74777.44;5101039;27;62454;-79
2023/05/14 22:51:55;;;;;;;;;30.75;24.00;;;;;-146.67;35.91;74787.41;5102425;27;61962;-80
2023/05/14 22:54:20;;;;;;;;;23.00;20.25;;;;;-146.67;36.46;74805.38;5101455;27;62003;-79
2023/05/14 22:56:46;;;;;;;;;23.50;19.00;;;;;-146.67;36.60;74819.34;5094664;27;61815;-79
2023/05/14 22:59:11;;;;;;;;;23.25;21.00;;;;;-146.67;36.88;74831.34;5100462;27;61815;-79
2023/05/14 23:01:37;;;;;;;;;30.00;21.50;;;;;-146.67;36.37;74833.31;5101587;27;62140;-79
2023/05/14 23:04:02;;;;;;;;;27.25;22.50;;;;;-146.67;36.75;74843.31;5093859;27;61996;-79
2023/05/14 23:06:28;;;;;;;;;28.50;23.25;;;;;-146.67;36.88;74841.31;5081822;28;61762;-79
2023/05/14 23:08:54;;;;;;;;;27.25;21.00;;;;;-146.67;36.56;74847.31;5081813;27;61771;-79
2023/05/14 23:11:20;;;;;;;;;28.75;26.50;;;;;-146.67;37.22;74855.28;5097987;27;61745;-79
2023/05/14 23:13:50;;;;;;;;;21.25;15.75;;;;;-146.67;36.63;74867.28;5081604;27;61924;-79
2023/05/14 23:16:15;;;;;;;;;28.00;23.50;;;;;-146.67;37.11;74877.25;5080592;28;61846;-79
2023/05/14 23:18:41;;;;;;;;;29.00;24.75;;;;;-146.67;37.13;74887.25;5078929;27;62198;-79
2023/05/14 23:21:07;;;;;;;;;31.50;24.50;;;;;-146.67;37.35;74881.25;5077340;28;61786;-79
2023/05/14 23:23:32;;;;;;;;;33.50;26.00;;;;;-146.67;37.56;74887.25;5081088;28;61992;-79
2023/05/14 23:25:57;;;;;;;;;22.00;16.00;;;;;-146.67;36.34;74891.22;5081715;28;61698;-79
2023/05/14 23:28:23;;;;;;;;;29.00;24.50;;;;;-146.67;37.04;74895.22;5080501;28;62137;-79
2023/05/14 23:30:48;;;;;;;;;27.75;23.00;;;;;-146.67;36.66;74903.22;5082185;28;61898;-79
2023/05/14 23:33:14;;;;;;;;;29.25;21.50;;;;;-146.67;37.52;74913.19;5080843;28;61668;-79
2023/05/14 23:35:39;;;;;;;;;30.00;20.25;;;;;-146.67;37.40;74911.19;5081503;28;61851;-79
2023/05/14 23:38:05;;;;;;;;;26.25;24.00;;;;;-146.67;37.31;74913.19;5073945;28;61909;-79
2023/05/14 23:40:31;;;;;;;;;30.75;25.50;;;;;-146.67;36.79;74929.16;5080364;28;61823;-79
2023/05/14 23:42:58;;;;;;;;;37.25;29.50;;;;;-146.67;37.67;74947.13;5100348;27;63900;-79
2023/05/14 23:45:27;;;;;;;;;20.75;18.75;;;;;-146.67;38.22;74961.13;5085211;27;61746;-79
2023/05/14 23:47:53;;;;;;;;;23.75;18.50;;;;;-146.67;37.95;74951.13;5084634;28;61768;-79
2023/05/14 23:50:19;;;;;;;;;31.50;25.75;;;;;-146.67;38.41;74961.13;5084356;28;62153;-78
2023/05/14 23:52:44;;;;;;;;;28.75;27.75;;;;;-146.67;38.60;74965.09;5082772;28;65097;-78
2023/05/14 23:55:10;;;;;;;;;30.00;26.50;;;;;-146.67;38.17;74967.09;5100341;27;61881;-79
2023/05/14 23:57:35;;;;;;;;;28.50;24.25;;;;;-146.67;38.34;74965.09;5083253;28;61825;-79
